Friday, October 31, 2014
04:07 UTC
  |  Log In   |  Register Free
Airport Search:

Firelands Community Hospital Nr 2 Airport
(OI87)

Firelands Community Hospital Nr 2 Airport Diagram
No Airport Diagram Available

FAA data valid effective September 18, 2014 - November 13, 2014 (unless otherwise noted).

 
 
 
 
 
 
 
 
 
 
 
 
 
 

Current Aviation Weather for Firelands Community Hospital Nr 2 Airport (OI87)

METAR data is unavailable for OI87. The nearest METAR location is at KPCW (8.3 nm NW from OI87).

The most recent METAR observation for KPCW was updated at: 0313
METAR Summary (Translated METAR)
KPCW
310253Z AUTO 20005KT 10SM OVC045 08/03 A3004 RMK AO2 56012 T00830033
(8.3 nm NW from OI87)
KLPR
310253Z AUTO 00000KT 10SM OVC047 06/03 A3005 RMK AO2 SLP179 T00560033 58010 TSNO
(24.8 nm SE from OI87)
TAF
No TAF information found within 50 nm of KLPR
  Airport Weather Conditions for OI87

Current weather conditions are
not available for OI87


The nearest NOAA weather station
is at PCW, (8.3 nm NW from OI87)
  
 Current Weather at PCW
47° F
Overcast
South winds at 5.8 mph
PCW NOAA Radar

Pressure: 30.04 in
Humidity: 71%
Wind: South at 5.8 MPH (5 KT)
Dew Point: 37.9°F
Visibility: 10.00 mi


Airport Weather Forecast for OI87

Translated METAR and TAF for KLPR
Translated METAR for KLPR (0402 UTC 31 October 2014)
found at http://aviationweather.gov/adds/metars/
 
METAR text: KLPR 310353Z AUTO 00000KT 10SM OVC048 06/03 A3004 RMK AO2 SLP176 T00610033 TSNO
Conditions at: KLPR (LORAIN/ELYRIA , OH, US) observed 0353 UTC 31 October 2014
Temperature: 6.1°C (43°F)
Dewpoint: 3.3°C (38°F) [RH = 82%]
Pressure (altimeter): 30.04 inches Hg (1017.4 mb)
[Sea-level pressure: 1017.6 mb]
Winds: calm
Visibility: 10 or more miles (16+ km)
Ceiling: 4800 feet AGL
Clouds: overcast cloud deck at 4800 feet AGL
Weather: automated observation with no human augmentation;
there may or may not be significant weather present at this time
Translated TAF for KLPR

There is no translated TAF available for this airport

Find All Airport Services Find A Hotel Find A Rental Car Find A Golf Course Find A Restaurant $100 Hamburger



FBO's on the Field
FBO Company Facility Photos Services Transportation Aviation Fuel Prices: Prices include tax
Catering Weather Repair Courtesy Rental Type 100LL JetA JetA+ MOGAS 8087
 
Add another FBO Facility Photos Catering Weather Repair Courtesy Rental Type 100LL JetA JetA+ MOGAS 8087
Services Transportation Aviation Fuel Prices: Prices include tax
There are no FBO's currently reporting fuel at OI87. List your FBO now


model-print
model-print
model-print
model-print